Liberty, MO (64068)

3:46 PM CDT on August 30, 2015 (GMT -0500)
Liberty City Hall | | Change Station
CLOSE
Current Station
Personal Weather Station
Location: Liberty, MO
Elevation: 912 ft
Nearby Weather Stations

Elev 912 ft 39.25 °N, 94.42 °W | Updated 11 minutes ago

Partly Cloudy
Partly Cloudy
85.2 °F
Feels Like 91 °F
N
4.0
Wind Variable Wind from North
Gusts 7.0 mph

Today
High -- | Low -- °F
--% Chance of Precip.
Yesterday
High -- | Low -- °F
Precip. -- in
6:44 AM 7:51 PM
Full, 98% visible
Pressure 29.98 in
Visibility 10.0 miles
Clouds Few 3300 ft
Scattered Clouds 4500 ft
Mostly Cloudy 5500 ft
Heat Index 91 °F
Dew Point 71 °F
Humidity 63%
Rainfall 0.00 in
Snow Depth Not available.
UV 4 out of 12
Pollen 9.60 out of 12
Air Quality Not available.
Flu Activity Not available.
METAR KMKC 301954Z VRB05KT 10SM FEW033 SCT045 BKN055 28/21 A2999 RMK AO2 SLP150 T02830206
Pressure 29.98 in
Visibility 10.0 miles
Clouds Few 3300 ft
Scattered Clouds 4500 ft
Mostly Cloudy 5500 ft
Heat Index 91 °F
Dew Point 71 °F
Humidity 63%
Rainfall 0.00 in
Snow Depth Not available.
UV 4 out of 12
Pollen 9.60 out of 12
Air Quality Not available.
Flu Activity Not available.
METAR KMKC 301954Z VRB05KT 10SM FEW033 SCT045 BKN055 28/21 A2999 RMK AO2 SLP150 T02830206

10-Day Weather Forecast

×

Almanac

Astronomy

Aug. 30, 2015 Rise Set
Actual Time
Civil Twilight
Nautical Twilight
Astronomical Twilight
Moon
Length of Visible Light
Length of Day
Tomorrow will be .
, % of the Moon is Illuminated

Today's Extremes

State Highs State Lows

Community

WunderPhotos

Upload Photos

1,851,057 photos uploaded!

WunderBlogs® & News

Nearby

Air Quality

  Air Quality AQ Index Pollutant
Not available.

Snow Depth

Station Depth Elevation

Earthquake Activity

City Distance Mag. Time & Date
Minimum magnitude displayed is 2.5.

Coastal Water Temperatures

Place Temperature

Stations

Nearby Weather Stations

Station Location Temp. Windchill Dew Point Humidity Wind Precip. Elev Updated Type